createdAt,value
2023-05-05T00:00:37.743Z,49.24
2023-05-05T00:01:40.172Z,49.28
2023-05-05T00:02:42.609Z,49.40
2023-05-05T00:03:44.969Z,49.37
2023-05-05T00:04:47.361Z,49.30
2023-05-05T00:05:50.442Z,49.26
2023-05-05T00:06:53.227Z,49.30
2023-05-05T00:07:55.451Z,49.38
2023-05-05T00:08:57.845Z,49.44
2023-05-05T00:10:00.048Z,49.31
2023-05-05T00:11:02.309Z,49.11
2023-05-05T00:12:05.146Z,49.19
2023-05-05T00:13:07.561Z,49.19
2023-05-05T00:14:09.782Z,49.41
2023-05-05T00:15:12.279Z,49.70
2023-05-05T00:16:14.993Z,49.88
2023-05-05T00:17:17.554Z,49.65
2023-05-05T00:18:20.912Z,49.78
2023-05-05T00:19:23.106Z,49.61
2023-05-05T00:20:25.545Z,49.42
2023-05-05T00:21:27.906Z,49.50
2023-05-05T00:22:30.396Z,49.97
2023-05-05T00:23:32.972Z,50.37
2023-05-05T00:24:36.024Z,50.70
2023-05-05T00:25:38.587Z,50.72
2023-05-05T00:26:41.040Z,50.85
2023-05-05T00:27:43.254Z,50.93
2023-05-05T00:28:45.933Z,51.38
2023-05-05T00:29:48.172Z,51.95
2023-05-05T00:30:50.495Z,52.12
2023-05-05T00:31:52.953Z,52.26
2023-05-05T00:32:55.663Z,52.81
2023-05-05T00:33:58.080Z,53.08
2023-05-05T00:35:00.345Z,52.66
2023-05-05T00:36:02.764Z,52.66
2023-05-05T00:37:05.065Z,52.88
2023-05-05T00:38:07.432Z,52.28
2023-05-05T00:39:10.211Z,52.54
2023-05-05T00:40:13.297Z,52.15
2023-05-05T00:41:15.527Z,52.01
2023-05-05T00:42:17.929Z,52.01
2023-05-05T00:43:21.333Z,52.04
2023-05-05T00:44:39.792Z,52.30
2023-05-05T00:45:44.320Z,52.50
2023-05-05T00:46:46.729Z,52.54
2023-05-05T00:47:53.614Z,52.48
2023-05-05T00:48:56.584Z,52.73
2023-05-05T00:49:59.024Z,52.43
2023-05-05T00:51:01.498Z,52.59
2023-05-05T00:52:05.178Z,52.68
2023-05-05T00:53:07.427Z,52.39
2023-05-05T00:54:09.679Z,51.95
2023-05-05T00:55:12.177Z,51.72
2023-05-05T00:56:16.828Z,51.63
2023-05-05T00:57:20.606Z,51.33
2023-05-05T00:58:23.116Z,51.44
2023-05-05T00:59:27.476Z,51.71
2023-05-05T01:00:34.285Z,51.59
2023-05-05T01:01:36.614Z,52.09
2023-05-05T01:02:40.275Z,52.80
2023-05-05T01:03:42.658Z,52.79
2023-05-05T01:04:45.017Z,53.02
2023-05-05T01:06:17.990Z,52.99
2023-05-05T01:07:37.756Z,52.57
2023-05-05T01:09:05.457Z,52.31
2023-05-05T01:10:20.759Z,51.93
2023-05-05T01:11:29.464Z,52.16
2023-05-05T01:12:52.163Z,51.74
2023-05-05T01:14:14.523Z,52.08
2023-05-05T01:15:32.626Z,52.21
2023-05-05T01:16:38.707Z,52.34
2023-05-05T01:17:53.232Z,52.71
2023-05-05T01:19:29.401Z,52.35
2023-05-05T01:20:55.688Z,52.64
2023-05-05T01:22:02.273Z,53.11
2023-05-05T01:23:09.300Z,53.09
2023-05-05T01:24:37.275Z,52.52
2023-05-05T01:26:05.743Z,52.79
2023-05-05T01:27:17.176Z,53.30
2023-05-05T01:28:54.476Z,53.69
2023-05-05T01:30:28.142Z,53.84
2023-05-05T01:31:39.797Z,54.60
2023-05-05T01:32:48.049Z,54.92
2023-05-05T01:33:59.028Z,54.86
2023-05-05T01:35:07.313Z,54.58
2023-05-05T01:36:15.665Z,54.60
2023-05-05T01:37:30.339Z,54.67
2023-05-05T01:38:38.122Z,54.47
2023-05-05T01:39:43.456Z,54.25
2023-05-05T01:40:50.993Z,54.08
2023-05-05T01:41:58.932Z,53.84
2023-05-05T01:43:03.854Z,54.20
2023-05-05T01:44:08.121Z,54.44
2023-05-05T01:45:13.753Z,54.44
2023-05-05T01:46:17.821Z,55.00
2023-05-05T01:47:23.472Z,54.96
2023-05-05T01:48:29.919Z,54.90
2023-05-05T01:49:34.373Z,54.59
2023-05-05T01:50:37.472Z,54.56
2023-05-05T01:51:40.957Z,54.92
2023-05-05T01:52:45.061Z,55.37
2023-05-05T01:53:48.150Z,55.18
2023-05-05T01:54:52.823Z,55.24
2023-05-05T01:55:58.348Z,54.99
2023-05-05T01:57:04.882Z,55.20
2023-05-05T01:58:08.257Z,54.96
2023-05-05T01:59:11.633Z,54.91
2023-05-05T02:00:16.588Z,55.01
2023-05-05T02:01:24.161Z,54.76
2023-05-05T02:02:28.608Z,54.46
2023-05-05T02:03:32.224Z,54.50
2023-05-05T02:04:37.094Z,54.35
2023-05-05T02:05:40.666Z,54.73
2023-05-05T02:06:44.380Z,55.08
2023-05-05T02:07:46.991Z,55.01
2023-05-05T02:08:51.295Z,54.64
2023-05-05T02:09:54.377Z,54.64
2023-05-05T02:10:57.820Z,54.81
2023-05-05T02:12:02.431Z,55.04
2023-05-05T02:13:05.504Z,55.19
2023-05-05T02:14:10.723Z,54.98
2023-05-05T02:15:15.337Z,54.93
2023-05-05T02:16:19.953Z,55.17
2023-05-05T02:17:23.947Z,55.32
2023-05-05T02:18:28.474Z,55.47
2023-05-05T02:19:36.348Z,55.76
2023-05-05T02:20:40.035Z,55.85
2023-05-05T02:21:42.676Z,55.82
2023-05-05T02:22:45.202Z,55.92
2023-05-05T02:23:51.761Z,56.02
2023-05-05T02:24:54.629Z,56.33
2023-05-05T02:26:09.183Z,56.21
2023-05-05T02:27:12.326Z,56.29
2023-05-05T02:28:22.515Z,56.25
2023-05-05T02:29:32.814Z,56.12
2023-05-05T02:30:36.570Z,56.59
2023-05-05T02:31:44.258Z,56.54
2023-05-05T02:32:53.959Z,56.03
2023-05-05T02:33:58.486Z,56.20
2023-05-05T02:35:17.442Z,55.94
2023-05-05T02:36:26.030Z,55.95
2023-05-05T02:37:34.125Z,55.80
2023-05-05T02:38:41.559Z,55.73
2023-05-05T02:39:51.785Z,56.11
2023-05-05T02:40:58.037Z,56.17
2023-05-05T02:42:05.832Z,56.42
2023-05-05T02:43:11.510Z,56.22
2023-05-05T02:44:15.592Z,56.53
2023-05-05T02:45:22.386Z,56.72
2023-05-05T02:46:26.035Z,56.34
2023-05-05T02:47:35.999Z,56.79
2023-05-05T02:48:38.474Z,56.71
2023-05-05T02:49:41.022Z,56.98
2023-05-05T02:50:43.957Z,56.89
2023-05-05T02:52:02.186Z,57.33
2023-05-05T02:53:09.123Z,57.50
2023-05-05T02:54:11.483Z,57.81
2023-05-05T02:55:15.036Z,58.00
2023-05-05T02:56:27.037Z,58.09
2023-05-05T02:58:04.794Z,58.08
2023-05-05T02:59:16.287Z,57.83
2023-05-05T03:00:23.598Z,57.96
2023-05-05T03:01:37.226Z,57.90
2023-05-05T03:03:05.811Z,57.63
2023-05-05T03:04:16.338Z,57.85
2023-05-05T03:05:28.557Z,57.86
2023-05-05T03:06:36.439Z,57.45
2023-05-05T03:07:43.017Z,57.25
2023-05-05T03:08:58.546Z,57.67
2023-05-05T03:10:18.736Z,58.06
2023-05-05T03:11:37.184Z,57.64
2023-05-05T03:12:51.145Z,57.57
2023-05-05T03:14:08.993Z,57.20
2023-05-05T03:15:13.760Z,57.41
2023-05-05T03:16:18.604Z,57.61
2023-05-05T03:17:23.974Z,57.86
2023-05-05T03:18:29.235Z,58.11
2023-05-05T03:19:37.973Z,58.14
2023-05-05T03:20:40.858Z,58.15
2023-05-05T03:21:45.852Z,57.95
2023-05-05T03:22:49.287Z,57.79
2023-05-05T03:23:52.007Z,58.43
2023-05-05T03:24:57.378Z,59.19
2023-05-05T03:26:00.253Z,59.58
2023-05-05T03:27:07.213Z,60.21
2023-05-05T03:28:14.650Z,60.36
2023-05-05T03:29:17.515Z,60.60
2023-05-05T03:30:20.265Z,60.45
2023-05-05T03:31:25.425Z,59.89
2023-05-05T03:32:31.901Z,59.99
2023-05-05T03:33:34.312Z,60.09
2023-05-05T03:34:37.835Z,60.15
2023-05-05T03:35:41.565Z,60.20
2023-05-05T03:36:47.425Z,60.28
2023-05-05T03:37:51.339Z,60.27
2023-05-05T03:38:54.255Z,59.93
2023-05-05T03:39:57.764Z,60.13
2023-05-05T03:41:05.297Z,59.58
2023-05-05T03:42:08.126Z,60.00
2023-05-05T03:43:11.647Z,60.24
2023-05-05T03:44:14.042Z,60.56
2023-05-05T03:45:17.225Z,60.48
2023-05-05T03:46:19.564Z,60.90
2023-05-05T03:47:24.560Z,61.52
2023-05-05T03:48:27.431Z,61.06
2023-05-05T03:49:30.087Z,60.82
2023-05-05T03:50:33.237Z,60.83
2023-05-05T03:51:36.458Z,60.54
2023-05-05T03:52:38.828Z,60.75
2023-05-05T03:53:41.532Z,61.11
2023-05-05T03:54:46.102Z,61.41
2023-05-05T03:55:48.541Z,61.41
2023-05-05T03:56:50.928Z,61.15
2023-05-05T03:57:53.244Z,60.84
2023-05-05T03:58:55.792Z,60.85
2023-05-05T03:59:58.101Z,60.60
2023-05-05T04:01:01.834Z,60.45
2023-05-05T04:02:04.527Z,61.29
2023-05-05T04:03:06.999Z,61.76
2023-05-05T04:04:13.133Z,61.56
2023-05-05T04:05:15.938Z,61.65
2023-05-05T04:06:18.616Z,61.32
2023-05-05T04:07:23.635Z,61.34
2023-05-05T04:08:25.897Z,61.66
2023-05-05T04:09:28.128Z,61.23
2023-05-05T04:10:30.728Z,60.98
2023-05-05T04:11:33.482Z,60.91
2023-05-05T04:12:36.303Z,60.71
2023-05-05T04:13:38.598Z,60.43
2023-05-05T04:14:40.892Z,61.38
2023-05-05T04:15:47.130Z,61.26
2023-05-05T04:16:50.533Z,61.16
2023-05-05T04:17:53.570Z,60.94
2023-05-05T04:18:56.101Z,61.15
2023-05-05T04:19:58.525Z,61.12
2023-05-05T04:21:01.213Z,60.75
2023-05-05T04:22:03.536Z,60.69
2023-05-05T04:23:07.126Z,60.42
2023-05-05T04:24:09.803Z,60.26
2023-05-05T04:25:12.285Z,60.33
2023-05-05T04:26:14.688Z,59.77
2023-05-05T04:27:16.941Z,59.75
2023-05-05T04:28:21.840Z,59.49
2023-05-05T04:29:24.435Z,59.33
2023-05-05T04:30:26.739Z,59.28
2023-05-05T04:31:29.303Z,59.53
2023-05-05T04:32:31.880Z,59.42
2023-05-05T04:33:34.763Z,59.50
2023-05-05T04:34:37.233Z,59.25
2023-05-05T04:35:39.975Z,58.65
2023-05-05T04:36:42.837Z,58.68
2023-05-05T04:37:46.095Z,59.00
2023-05-05T04:38:48.755Z,59.16
2023-05-05T04:39:51.134Z,59.31
2023-05-05T04:40:53.374Z,59.82
2023-05-05T04:41:55.853Z,59.73
2023-05-05T04:42:58.065Z,59.63
2023-05-05T04:44:00.782Z,58.91
2023-05-05T04:45:03.846Z,58.13
2023-05-05T04:46:07.162Z,57.97
2023-05-05T04:47:13.878Z,57.34
2023-05-05T04:48:16.860Z,57.09
2023-05-05T04:49:19.243Z,57.57
2023-05-05T04:50:21.687Z,57.49
2023-05-05T04:51:23.956Z,57.18
2023-05-05T04:52:26.357Z,57.09
2023-05-05T04:53:28.661Z,56.55
2023-05-05T04:54:30.864Z,56.50
2023-05-05T04:55:33.593Z,57.04
2023-05-05T04:56:36.091Z,57.39
2023-05-05T04:57:38.350Z,57.25
2023-05-05T04:58:40.764Z,57.10
2023-05-05T04:59:42.973Z,57.38
2023-05-05T05:00:45.201Z,57.43
2023-05-05T05:01:47.805Z,57.30
2023-05-05T05:02:50.074Z,57.31
2023-05-05T05:03:52.735Z,56.84
2023-05-05T05:04:54.995Z,56.54
2023-05-05T05:05:57.477Z,56.23
2023-05-05T05:07:01.566Z,55.82
2023-05-05T05:08:04.025Z,55.95
2023-05-05T05:09:06.194Z,56.15
2023-05-05T05:10:09.071Z,56.41
2023-05-05T05:11:12.174Z,56.05
2023-05-05T05:12:14.386Z,56.33
2023-05-05T05:13:16.644Z,55.87
2023-05-05T05:14:18.943Z,55.58
2023-05-05T05:15:21.265Z,55.03
2023-05-05T05:16:25.365Z,54.94
2023-05-05T05:17:30.195Z,54.75
2023-05-05T05:18:33.026Z,54.89
2023-05-05T05:19:35.206Z,54.91
2023-05-05T05:20:38.066Z,54.87
2023-05-05T05:21:40.465Z,55.12
2023-05-05T05:22:42.878Z,55.46
2023-05-05T05:23:49.666Z,55.56
2023-05-05T05:24:52.335Z,55.51
2023-05-05T05:25:55.898Z,55.31
2023-05-05T05:26:58.661Z,55.05
2023-05-05T05:28:10.235Z,54.37
2023-05-05T05:29:20.085Z,53.92
2023-05-05T05:30:23.529Z,54.13
2023-05-05T05:31:25.848Z,54.47
2023-05-05T05:32:30.664Z,55.15
2023-05-05T05:33:33.150Z,55.01
2023-05-05T05:34:35.790Z,55.31
2023-05-05T05:35:39.589Z,57.51
2023-05-05T05:36:41.941Z,54.86
2023-05-05T05:37:44.271Z,53.90
2023-05-05T05:38:46.708Z,53.93
2023-05-05T05:39:52.327Z,54.67
2023-05-05T05:40:56.710Z,54.77
2023-05-05T05:42:00.631Z,54.14
2023-05-05T05:43:03.226Z,54.80
2023-05-05T05:44:06.352Z,55.00
2023-05-05T05:45:09.304Z,55.17
2023-05-05T05:46:12.745Z,56.04
2023-05-05T05:47:17.045Z,54.87
2023-05-05T05:48:21.446Z,54.48
2023-05-05T05:49:23.685Z,53.51
2023-05-05T05:50:28.601Z,53.58
2023-05-05T05:51:32.060Z,53.38
2023-05-05T05:52:36.361Z,54.31
2023-05-05T05:53:40.646Z,52.61
2023-05-05T05:54:44.320Z,51.71
2023-05-05T05:55:47.007Z,51.02
2023-05-05T05:56:51.244Z,50.52
2023-05-05T05:57:53.564Z,49.43
2023-05-05T05:58:56.202Z,48.73
2023-05-05T06:00:01.627Z,47.61
2023-05-05T06:01:14.126Z,46.72
2023-05-05T06:02:16.740Z,45.90
2023-05-05T06:03:19.617Z,45.64
2023-05-05T06:04:22.534Z,46.30
2023-05-05T06:05:24.781Z,46.30
2023-05-05T06:06:28.025Z,46.06
2023-05-05T06:07:30.264Z,45.27
2023-05-05T06:08:32.898Z,46.65
2023-05-05T06:09:35.457Z,46.50
2023-05-05T06:10:37.751Z,47.18
2023-05-05T06:11:44.734Z,47.00
2023-05-05T06:12:46.967Z,46.78
2023-05-05T06:13:49.231Z,46.73
2023-05-05T06:14:51.894Z,46.62
2023-05-05T06:15:54.646Z,46.49
2023-05-05T06:16:56.927Z,47.20
2023-05-05T06:18:01.866Z,46.85
2023-05-05T06:19:09.411Z,46.64
2023-05-05T06:20:13.932Z,46.19
2023-05-05T06:21:16.534Z,44.97
2023-05-05T06:22:18.796Z,44.54
2023-05-05T06:23:21.277Z,44.72
2023-05-05T06:24:29.145Z,44.48
2023-05-05T06:25:31.944Z,43.21
2023-05-05T06:26:34.505Z,43.02
2023-05-05T06:27:36.698Z,42.17
2023-05-05T06:28:39.330Z,40.73
2023-05-05T06:29:41.709Z,39.75
2023-05-05T06:30:44.259Z,39.30
2023-05-05T06:31:47.112Z,39.46
2023-05-05T06:32:49.694Z,39.20
2023-05-05T06:33:52.168Z,39.01
2023-05-05T06:34:54.341Z,41.05
2023-05-05T06:35:56.515Z,41.53
2023-05-05T06:36:58.888Z,40.75
2023-05-05T06:38:01.151Z,41.14
2023-05-05T06:39:03.900Z,40.59
2023-05-05T06:40:07.947Z,40.13
2023-05-05T06:41:10.581Z,40.51
2023-05-05T06:42:12.967Z,40.57
2023-05-05T06:43:15.246Z,40.60
2023-05-05T06:44:22.157Z,41.72
2023-05-05T06:45:24.383Z,42.74
2023-05-05T06:46:26.644Z,43.27
2023-05-05T06:47:28.906Z,43.51
2023-05-05T06:48:31.296Z,42.75
2023-05-05T06:49:33.935Z,42.98
2023-05-05T06:50:36.503Z,41.95
2023-05-05T06:51:40.560Z,40.92
2023-05-05T06:52:44.421Z,40.31
2023-05-05T06:53:46.886Z,39.75
2023-05-05T06:54:49.237Z,39.06
2023-05-05T06:55:51.550Z,39.07
2023-05-05T06:56:53.787Z,39.23
2023-05-05T06:57:56.136Z,39.56
2023-05-05T06:58:58.540Z,39.61
2023-05-05T07:00:00.925Z,39.65
2023-05-05T07:01:04.082Z,39.96
2023-05-05T07:02:06.560Z,40.09
2023-05-05T07:03:09.150Z,40.64
2023-05-05T07:04:11.410Z,41.28
2023-05-05T07:05:14.126Z,41.77
2023-05-05T07:06:16.338Z,41.36
2023-05-05T07:07:18.509Z,40.37
2023-05-05T07:08:20.937Z,39.52
2023-05-05T07:09:23.107Z,38.45
2023-05-05T07:10:26.297Z,37.21
2023-05-05T07:11:28.517Z,36.16
2023-05-05T07:12:33.869Z,35.35
2023-05-05T07:13:38.339Z,35.95
2023-05-05T07:14:40.907Z,36.98
2023-05-05T07:15:49.414Z,37.27
2023-05-05T07:16:51.745Z,37.11
2023-05-05T07:17:54.110Z,36.76
2023-05-05T07:18:56.855Z,38.00
2023-05-05T07:19:59.211Z,37.87
2023-05-05T07:21:03.020Z,38.53
2023-05-05T07:22:06.323Z,37.74
2023-05-05T07:23:08.602Z,37.36
2023-05-05T07:24:10.796Z,36.94
2023-05-05T07:25:13.334Z,36.07
2023-05-05T07:26:15.935Z,36.32
2023-05-05T07:27:18.130Z,36.26
2023-05-05T07:28:22.333Z,36.65
2023-05-05T07:29:24.556Z,36.04
2023-05-05T07:30:26.767Z,36.35
2023-05-05T07:31:29.454Z,35.91
2023-05-05T07:32:31.846Z,34.94
2023-05-05T07:33:34.076Z,34.71
2023-05-05T07:34:37.937Z,35.72
2023-05-05T07:35:40.568Z,35.99
2023-05-05T07:36:43.000Z,35.20
2023-05-05T07:37:46.215Z,34.09
2023-05-05T07:38:48.454Z,33.86
2023-05-05T07:39:50.794Z,34.53
2023-05-05T07:40:52.985Z,34.42
2023-05-05T07:41:55.388Z,34.91
2023-05-05T07:42:57.562Z,34.81
2023-05-05T07:44:01.186Z,35.37
2023-05-05T07:45:04.730Z,34.42
2023-05-05T07:46:07.356Z,34.84
2023-05-05T07:47:09.648Z,34.94
2023-05-05T07:48:12.287Z,34.08
2023-05-05T07:49:14.692Z,33.79
2023-05-05T07:50:17.122Z,34.25
2023-05-05T07:51:19.332Z,34.61
2023-05-05T07:52:30.091Z,34.37
2023-05-05T07:53:41.423Z,33.58
2023-05-05T07:54:45.221Z,34.28
2023-05-05T07:55:47.677Z,34.51
2023-05-05T07:56:50.038Z,33.64
2023-05-05T07:57:52.229Z,33.59
2023-05-05T07:58:55.375Z,34.24
2023-05-05T07:59:57.760Z,33.98
2023-05-05T08:01:01.308Z,34.84
2023-05-05T08:02:03.914Z,34.63
2023-05-05T08:03:08.303Z,35.28
2023-05-05T08:04:12.334Z,35.03
2023-05-05T08:05:14.608Z,34.01
2023-05-05T08:06:21.781Z,34.07
2023-05-05T08:07:24.004Z,33.48
2023-05-05T08:08:26.963Z,33.22
2023-05-05T08:09:29.272Z,32.81
2023-05-05T08:10:31.500Z,32.93
2023-05-05T08:11:33.906Z,34.37
2023-05-05T08:12:37.063Z,35.73
2023-05-05T08:13:39.287Z,34.97
2023-05-05T08:14:42.677Z,34.49
2023-05-05T08:15:45.453Z,34.33
2023-05-05T08:16:47.765Z,33.68
2023-05-05T08:17:52.284Z,32.77
2023-05-05T08:18:54.582Z,32.90
2023-05-05T08:20:07.431Z,32.48
2023-05-05T08:21:10.827Z,32.27
2023-05-05T08:22:13.060Z,32.34
2023-05-05T08:23:15.402Z,32.36
2023-05-05T08:24:17.603Z,32.58
2023-05-05T08:25:19.801Z,32.66
2023-05-05T08:26:22.858Z,32.16
2023-05-05T08:27:25.088Z,31.50
2023-05-05T08:28:27.252Z,30.97
2023-05-05T08:29:29.512Z,31.38
2023-05-05T08:30:31.908Z,32.14
2023-05-05T08:31:37.142Z,32.23
2023-05-05T08:32:39.412Z,32.17
2023-05-05T08:33:41.754Z,31.99
2023-05-05T08:34:46.279Z,31.61
2023-05-05T08:35:49.409Z,31.04
2023-05-05T08:36:51.985Z,31.86
2023-05-05T08:37:55.441Z,31.13
2023-05-05T08:39:00.117Z,31.38
2023-05-05T08:40:02.471Z,31.17
2023-05-05T08:41:08.362Z,32.48
2023-05-05T08:42:12.332Z,32.76
2023-05-05T08:43:20.188Z,32.59
2023-05-05T08:44:22.580Z,32.21
2023-05-05T08:45:25.542Z,31.72
2023-05-05T08:46:28.491Z,31.49
2023-05-05T08:47:32.275Z,32.17
2023-05-05T08:48:36.622Z,31.52
2023-05-05T08:49:48.089Z,31.63
2023-05-05T08:50:57.401Z,31.58
2023-05-05T08:52:04.949Z,31.27
2023-05-05T08:53:11.852Z,30.43
2023-05-05T08:54:19.982Z,30.08
2023-05-05T08:55:25.501Z,30.01
2023-05-05T08:56:39.916Z,30.13
2023-05-05T08:57:56.145Z,30.56
2023-05-05T08:58:59.575Z,31.18
2023-05-05T09:00:04.206Z,30.82
2023-05-05T09:01:07.693Z,30.03
2023-05-05T09:02:10.613Z,30.17
2023-05-05T09:03:13.582Z,30.05
2023-05-05T09:04:16.787Z,29.69
2023-05-05T09:05:18.948Z,29.50
2023-05-05T09:06:22.376Z,30.10
2023-05-05T09:07:25.119Z,29.28
2023-05-05T09:08:28.329Z,28.84
2023-05-05T09:09:30.883Z,28.96
2023-05-05T09:10:34.101Z,29.26
2023-05-05T09:11:37.578Z,28.74
2023-05-05T09:12:42.899Z,28.44
2023-05-05T09:13:45.170Z,29.45
2023-05-05T09:14:47.732Z,29.91
2023-05-05T09:15:50.114Z,30.99
2023-05-05T09:16:52.373Z,30.84
2023-05-05T09:17:57.745Z,30.73
2023-05-05T09:19:04.517Z,30.15
2023-05-05T09:20:08.401Z,30.04
2023-05-05T09:21:24.813Z,31.41
2023-05-05T09:22:43.091Z,30.96
2023-05-05T09:24:09.118Z,29.77
2023-05-05T09:25:16.538Z,29.66
2023-05-05T09:26:18.920Z,30.05
2023-05-05T09:27:23.360Z,30.20
2023-05-05T09:28:26.037Z,30.21
2023-05-05T09:29:28.942Z,31.54
2023-05-05T09:30:31.557Z,31.42
2023-05-05T09:31:36.188Z,31.33
2023-05-05T09:32:49.014Z,31.54
2023-05-05T09:33:51.699Z,32.21
2023-05-05T09:34:59.000Z,31.55
2023-05-05T09:36:01.589Z,31.11
2023-05-05T09:37:04.118Z,30.76
2023-05-05T09:38:15.214Z,31.13
2023-05-05T09:39:20.193Z,31.35
2023-05-05T09:40:22.717Z,31.19
2023-05-05T09:41:42.341Z,31.06
2023-05-05T09:42:45.074Z,31.02
2023-05-05T09:43:52.489Z,31.32
2023-05-05T09:44:54.796Z,32.08
2023-05-05T09:46:07.797Z,32.70
2023-05-05T09:47:26.047Z,32.43
2023-05-05T09:48:32.561Z,32.17
2023-05-05T09:49:36.244Z,31.48
2023-05-05T09:50:44.768Z,31.69
2023-05-05T09:51:48.149Z,32.15
2023-05-05T09:53:01.866Z,31.49
2023-05-05T09:54:04.130Z,30.98
2023-05-05T09:55:08.184Z,30.96
2023-05-05T09:56:10.533Z,30.77
2023-05-05T09:57:33.556Z,30.15
2023-05-05T09:58:36.301Z,29.73
2023-05-05T09:59:39.040Z,30.15
2023-05-05T10:00:41.573Z,30.17
2023-05-05T10:01:44.250Z,30.29
2023-05-05T10:02:46.857Z,30.44
2023-05-05T10:03:52.534Z,30.43
2023-05-05T10:05:07.373Z,30.52
2023-05-05T10:06:09.832Z,31.26
2023-05-05T10:07:23.248Z,31.44
2023-05-05T10:08:28.023Z,31.34
2023-05-05T10:09:31.914Z,30.88
2023-05-05T10:10:35.232Z,31.66
2023-05-05T10:11:37.528Z,31.38
2023-05-05T10:12:40.363Z,30.83
2023-05-05T10:13:43.015Z,30.95
2023-05-05T10:14:45.777Z,30.82
2023-05-05T10:15:51.498Z,30.69
2023-05-05T10:16:55.532Z,31.08
2023-05-05T10:18:07.460Z,31.05
2023-05-05T10:19:14.321Z,30.96
2023-05-05T10:20:18.876Z,31.54
2023-05-05T10:21:21.756Z,31.23
2023-05-05T10:22:26.171Z,31.01
2023-05-05T10:23:36.112Z,31.92
2023-05-05T10:24:55.343Z,32.14
2023-05-05T10:26:07.379Z,32.15
2023-05-05T10:27:19.090Z,31.85
2023-05-05T10:28:32.536Z,31.61
2023-05-05T10:30:04.455Z,31.90
2023-05-05T10:31:24.489Z,32.35
2023-05-05T10:32:56.836Z,31.97
2023-05-05T10:36:38.658Z,31.35
2023-05-05T10:37:41.691Z,31.34
2023-05-05T10:38:46.609Z,31.77
2023-05-05T10:39:50.599Z,32.08
2023-05-05T10:40:53.230Z,31.98
2023-05-05T10:41:55.659Z,31.93
2023-05-05T10:42:59.321Z,32.14
2023-05-05T10:44:03.765Z,31.37
2023-05-05T10:45:07.821Z,31.46
2023-05-05T10:46:11.256Z,31.82
2023-05-05T10:47:13.822Z,32.50
2023-05-05T10:48:25.593Z,32.99
2023-05-05T10:50:04.017Z,32.63
2023-05-05T10:51:39.558Z,31.85
2023-05-05T10:53:20.666Z,32.09
2023-05-05T10:54:38.531Z,31.99
2023-05-05T10:55:57.286Z,31.62
2023-05-05T10:57:02.801Z,29.92
2023-05-05T10:58:05.025Z,30.37
2023-05-05T10:59:38.669Z,30.95
2023-05-05T11:00:41.369Z,30.94
2023-05-05T11:01:43.837Z,30.96
2023-05-05T11:02:46.277Z,30.45
2023-05-05T11:03:48.785Z,30.80
2023-05-05T11:05:21.549Z,30.81
2023-05-05T11:06:24.042Z,31.05
2023-05-05T11:07:27.689Z,30.58
2023-05-05T11:08:34.051Z,30.71
2023-05-05T11:09:53.835Z,31.22
2023-05-05T11:10:56.198Z,31.02
2023-05-05T11:12:03.498Z,31.01
2023-05-05T11:13:08.667Z,31.26
2023-05-05T11:14:22.369Z,29.64
2023-05-05T11:15:27.339Z,28.07
2023-05-05T11:16:43.559Z,26.96
2023-05-05T11:17:47.783Z,27.01
2023-05-05T11:18:50.324Z,26.55
2023-05-05T11:19:53.367Z,28.07
2023-05-05T11:20:58.348Z,28.68
2023-05-05T11:22:04.167Z,29.05
2023-05-05T11:23:06.608Z,28.97
2023-05-05T11:24:29.277Z,28.79
2023-05-05T11:25:34.501Z,28.66
2023-05-05T11:26:51.478Z,28.92
2023-05-05T11:28:10.691Z,29.64
2023-05-05T11:29:13.082Z,29.06
2023-05-05T11:30:15.630Z,29.29
2023-05-05T11:31:19.226Z,29.01
2023-05-05T11:32:21.498Z,29.23
2023-05-05T11:33:31.851Z,28.88
2023-05-05T11:34:34.377Z,28.38
2023-05-05T11:35:55.568Z,27.57
2023-05-05T11:37:03.427Z,27.54
2023-05-05T11:38:07.993Z,27.69
2023-05-05T11:39:24.166Z,28.02
2023-05-05T11:40:36.957Z,28.51
2023-05-05T11:42:06.547Z,28.72
2023-05-05T11:43:12.125Z,28.72
2023-05-05T11:44:16.625Z,28.72
2023-05-05T11:45:21.740Z,28.14
2023-05-05T11:46:24.035Z,27.84
2023-05-05T11:47:28.270Z,27.52
2023-05-05T11:48:30.634Z,27.46
2023-05-05T11:49:35.376Z,26.98
2023-05-05T11:50:37.963Z,26.79
2023-05-05T11:51:40.396Z,26.82
2023-05-05T11:52:43.018Z,27.04
2023-05-05T11:53:49.716Z,27.96
2023-05-05T11:54:52.000Z,29.61
2023-05-05T11:56:06.966Z,29.42
2023-05-05T11:57:09.389Z,29.40
2023-05-05T11:58:18.708Z,28.88
2023-05-05T11:59:21.696Z,28.98
2023-05-05T12:00:33.916Z,28.95
2023-05-05T12:01:42.878Z,28.57
2023-05-05T12:02:45.423Z,28.75
2023-05-05T12:03:48.122Z,28.46
2023-05-05T12:04:51.317Z,27.97
2023-05-05T12:05:56.719Z,27.43
2023-05-05T12:07:00.039Z,27.07
2023-05-05T12:08:02.302Z,26.98
2023-05-05T12:09:04.710Z,26.90
2023-05-05T12:10:07.859Z,28.31
2023-05-05T12:11:11.695Z,28.53
2023-05-05T12:12:15.302Z,28.72
2023-05-05T12:13:21.173Z,27.73
2023-05-05T12:14:25.610Z,27.07
2023-05-05T12:15:29.700Z,26.46
2023-05-05T12:16:31.991Z,26.09
2023-05-05T12:17:42.865Z,25.98
2023-05-05T12:18:45.429Z,26.43
2023-05-05T12:19:54.704Z,26.76
2023-05-05T12:20:56.961Z,26.62
2023-05-05T12:22:03.127Z,26.28
2023-05-05T12:23:05.661Z,26.22
2023-05-05T12:24:13.174Z,26.15
2023-05-05T12:25:16.337Z,26.34
2023-05-05T12:26:26.432Z,26.48
2023-05-05T12:27:29.256Z,26.63
2023-05-05T12:28:46.393Z,26.39
2023-05-05T12:29:49.266Z,26.39
2023-05-05T12:31:00.740Z,26.06
2023-05-05T12:32:04.250Z,26.32
2023-05-05T12:33:09.094Z,27.04
2023-05-05T12:34:12.015Z,27.53
2023-05-05T12:35:14.710Z,28.51
2023-05-05T12:36:17.075Z,28.44
2023-05-05T12:37:20.946Z,28.25
2023-05-05T12:38:23.377Z,28.04
2023-05-05T12:39:36.269Z,27.48
2023-05-05T12:40:51.778Z,27.46
2023-05-05T12:42:05.249Z,27.38
2023-05-05T12:43:07.880Z,27.80
2023-05-05T12:44:10.191Z,28.32
2023-05-05T12:45:17.688Z,28.47
2023-05-05T12:46:20.094Z,27.99
2023-05-05T12:47:32.870Z,27.84
2023-05-05T12:48:38.036Z,28.44
2023-05-05T12:49:50.977Z,28.79
2023-05-05T12:50:53.268Z,28.54
2023-05-05T12:51:56.991Z,28.49
2023-05-05T12:52:59.236Z,28.45
2023-05-05T12:54:12.031Z,28.33
2023-05-05T12:55:14.517Z,28.92
2023-05-05T12:56:36.487Z,28.60
2023-05-05T12:57:39.625Z,29.18
2023-05-05T12:58:50.821Z,28.93
2023-05-05T12:59:53.748Z,28.78
2023-05-05T13:01:09.103Z,28.46
2023-05-05T13:02:11.430Z,28.85
2023-05-05T13:03:20.313Z,29.25
2023-05-05T13:04:24.087Z,28.96
2023-05-05T13:05:33.524Z,29.21
2023-05-05T13:06:36.196Z,28.89
2023-05-05T13:07:50.811Z,28.78
2023-05-05T13:08:53.312Z,27.88
2023-05-05T13:10:10.803Z,28.05
2023-05-05T13:11:13.669Z,27.64
2023-05-05T13:12:18.196Z,27.21
2023-05-05T13:13:20.499Z,26.94
2023-05-05T13:14:23.401Z,27.09
2023-05-05T13:15:26.193Z,27.00
2023-05-05T13:16:28.576Z,27.20
2023-05-05T13:17:33.353Z,27.40
2023-05-05T13:18:49.679Z,27.40
2023-05-05T13:19:52.232Z,27.55
2023-05-05T13:20:54.561Z,27.82
2023-05-05T13:21:58.113Z,27.53
2023-05-05T13:23:00.360Z,27.93
2023-05-05T13:24:18.913Z,28.05
2023-05-05T13:25:25.008Z,28.77
2023-05-05T13:26:28.291Z,28.24
2023-05-05T13:27:30.537Z,28.28
2023-05-05T13:28:32.755Z,27.99
2023-05-05T13:29:35.213Z,28.34
2023-05-05T13:30:37.425Z,28.75
2023-05-05T13:31:39.982Z,28.59
2023-05-05T13:32:42.512Z,28.20
2023-05-05T13:33:44.984Z,28.01
2023-05-05T13:34:47.471Z,28.01
2023-05-05T13:35:49.746Z,28.00
2023-05-05T13:36:52.119Z,28.13
2023-05-05T13:37:54.574Z,28.39
2023-05-05T13:38:56.889Z,28.28
2023-05-05T13:40:00.575Z,28.46
2023-05-05T13:41:03.119Z,28.06
2023-05-05T13:42:05.486Z,27.74
2023-05-05T13:43:07.882Z,27.78
2023-05-05T13:44:10.292Z,28.18
2023-05-05T13:45:14.344Z,28.24
2023-05-05T13:46:19.584Z,28.16
2023-05-05T13:47:22.524Z,27.98
2023-05-05T13:48:25.049Z,28.35
2023-05-05T13:49:27.287Z,28.17
2023-05-05T13:50:29.862Z,28.25
2023-05-05T13:51:32.981Z,28.13
2023-05-05T13:52:35.613Z,28.05
2023-05-05T13:53:39.895Z,28.38
2023-05-05T13:54:42.466Z,28.78
2023-05-05T13:55:45.020Z,28.47
2023-05-05T13:56:47.289Z,28.59
2023-05-05T13:57:49.856Z,28.55
2023-05-05T13:58:52.430Z,29.00
2023-05-05T13:59:54.619Z,28.96
2023-05-05T14:00:57.030Z,29.01
2023-05-05T14:02:00.935Z,28.88
2023-05-05T14:03:03.278Z,28.92
2023-05-05T14:04:06.090Z,29.23
2023-05-05T14:05:09.410Z,29.40
2023-05-05T14:06:11.964Z,29.00